createdAt,value
2019-04-25T00:02:01.871Z,17.73
2019-04-25T00:04:31.531Z,16.90
2019-04-25T00:07:00.065Z,18.73
2019-04-25T00:09:31.722Z,17.87
2019-04-25T00:12:00.299Z,18.60
2019-04-25T00:14:31.490Z,18.70
2019-04-25T00:17:01.609Z,19.00
2019-04-25T00:19:31.666Z,19.73
2019-04-25T00:22:02.125Z,18.47
2019-04-25T00:24:34.859Z,18.53
2019-04-25T00:27:03.535Z,18.90
2019-04-25T00:29:32.002Z,18.87
2019-04-25T00:32:01.656Z,19.03
2019-04-25T00:34:31.661Z,19.30
2019-04-25T00:37:02.323Z,19.40
2019-04-25T00:39:31.956Z,18.57
2019-04-25T00:42:02.201Z,18.40
2019-04-25T00:44:31.934Z,19.73
2019-04-25T00:47:02.309Z,19.40
2019-04-25T00:49:32.090Z,17.93
2019-04-25T00:52:01.977Z,18.23
2019-04-25T00:54:31.366Z,18.37
2019-04-25T00:56:59.975Z,18.67
2019-04-25T00:59:43.902Z,17.80
2019-04-25T01:02:29.334Z,18.10
2019-04-25T01:04:57.771Z,17.60
2019-04-25T01:07:26.182Z,16.77
2019-04-25T01:09:54.687Z,14.00
2019-04-25T01:12:23.173Z,14.80
2019-04-25T01:14:52.813Z,16.27
2019-04-25T01:17:22.943Z,15.60
2019-04-25T01:19:51.434Z,14.50
2019-04-25T01:22:19.841Z,15.70
2019-04-25T01:24:49.327Z,15.70
2019-04-25T01:27:17.975Z,16.37
2019-04-25T01:29:47.778Z,16.77
2019-04-25T01:32:17.957Z,15.97
2019-04-25T01:34:50.901Z,16.13
2019-04-25T01:37:23.950Z,18.03
2019-04-25T01:39:55.309Z,19.17
2019-04-25T01:42:34.870Z,18.40
2019-04-25T01:45:04.151Z,16.50
2019-04-25T01:47:33.646Z,14.47
2019-04-25T01:50:03.829Z,13.23
2019-04-25T01:52:33.452Z,13.37
2019-04-25T01:55:03.474Z,12.60
2019-04-25T01:57:33.657Z,10.93
2019-04-25T02:00:03.920Z,9.90
2019-04-25T02:02:33.569Z,8.83
2019-04-25T02:05:03.988Z,7.70
2019-04-25T02:07:33.358Z,6.67
2019-04-25T02:10:03.661Z,5.90
2019-04-25T02:12:33.905Z,5.10
2019-04-25T02:15:05.953Z,5.37
2019-04-25T02:17:34.046Z,5.40
2019-04-25T02:20:04.489Z,5.37
2019-04-25T02:22:33.952Z,4.00
2019-04-25T02:25:04.561Z,3.97
2019-04-25T02:27:34.207Z,3.97
2019-04-25T02:30:04.352Z,4.20
2019-04-25T02:32:34.397Z,4.03
2019-04-25T02:35:09.096Z,4.27
2019-04-25T02:37:35.197Z,3.97
2019-04-25T02:40:07.716Z,4.10
2019-04-25T02:42:35.683Z,4.10
2019-04-25T02:45:26.422Z,3.80
2019-04-25T02:48:14.121Z,3.80
2019-04-25T02:50:46.178Z,4.03
2019-04-25T02:53:36.324Z,3.93
2019-04-25T02:56:07.960Z,3.83
2019-04-25T02:58:34.241Z,3.90
2019-04-25T03:01:16.212Z,4.20
2019-04-25T03:03:35.042Z,3.80
2019-04-25T03:06:06.017Z,3.97
2019-04-25T03:08:35.453Z,4.70
2019-04-25T03:11:05.768Z,4.57
2019-04-25T03:13:34.371Z,5.20
2019-04-25T03:16:06.102Z,4.93
2019-04-25T03:18:34.950Z,5.03
2019-04-25T03:21:17.208Z,5.20
2019-04-25T03:23:46.377Z,5.43
2019-04-25T03:26:15.027Z,5.70
2019-04-25T03:28:43.905Z,5.77
2019-04-25T03:31:18.658Z,6.37
2019-04-25T03:33:45.980Z,7.00
2019-04-25T03:36:14.255Z,5.93
2019-04-25T03:38:44.188Z,6.50
2019-04-25T03:41:13.229Z,6.23
2019-04-25T03:43:44.224Z,7.27
2019-04-25T03:46:14.270Z,7.40
2019-04-25T03:48:44.059Z,5.80
2019-04-25T03:51:15.354Z,6.50
2019-04-25T03:53:43.743Z,6.40
2019-04-25T03:56:12.955Z,6.90
2019-04-25T03:58:43.904Z,6.80
2019-04-25T04:01:13.839Z,6.40
2019-04-25T04:03:44.021Z,7.07
2019-04-25T04:06:14.251Z,6.60
2019-04-25T04:08:44.268Z,7.00
2019-04-25T04:11:14.516Z,6.23
2019-04-25T04:13:43.968Z,6.63
2019-04-25T04:16:14.320Z,6.50
2019-04-25T04:18:44.960Z,6.50
2019-04-25T04:21:27.019Z,6.80
2019-04-25T04:24:00.286Z,6.50
2019-04-25T04:26:28.760Z,7.00
2019-04-25T04:28:57.190Z,6.80
2019-04-25T04:31:25.601Z,6.60
2019-04-25T04:33:54.033Z,7.33
2019-04-25T04:36:23.770Z,6.63
2019-04-25T04:38:52.731Z,6.00
2019-04-25T04:41:23.852Z,6.80
2019-04-25T04:43:54.024Z,6.90
2019-04-25T04:46:24.031Z,7.10
2019-04-25T04:48:54.079Z,6.40
2019-04-25T04:51:23.773Z,7.33
2019-04-25T04:53:53.689Z,7.13
2019-04-25T04:56:23.922Z,6.80
2019-04-25T04:58:53.968Z,7.40
2019-04-25T05:01:24.720Z,6.93
2019-04-25T05:03:54.917Z,6.60
2019-04-25T05:06:27.817Z,6.80
2019-04-25T05:08:57.931Z,6.70
2019-04-25T05:11:26.365Z,6.90
2019-04-25T05:13:54.772Z,6.50
2019-04-25T05:16:23.793Z,5.90
2019-04-25T05:18:55.090Z,6.17
2019-04-25T05:21:22.658Z,6.00
2019-04-25T05:23:51.040Z,6.43
2019-04-25T05:26:19.549Z,5.27
2019-04-25T05:28:47.956Z,6.13
2019-04-25T05:31:25.511Z,6.20
2019-04-25T05:33:54.109Z,6.87
2019-04-25T05:36:24.902Z,6.30
2019-04-25T05:38:53.899Z,6.57
2019-04-25T05:41:25.222Z,6.57
2019-04-25T05:43:53.700Z,6.20
2019-04-25T05:46:22.136Z,6.10
2019-04-25T05:48:50.542Z,5.73
2019-04-25T05:51:19.535Z,5.90
2019-04-25T05:53:48.127Z,5.53
2019-04-25T05:56:16.566Z,5.63
2019-04-25T05:58:44.974Z,5.87
2019-04-25T06:01:13.507Z,5.33
2019-04-25T06:03:41.903Z,5.83
2019-04-25T06:06:10.380Z,5.73
2019-04-25T06:08:40.454Z,5.27
2019-04-25T06:11:28.858Z,4.90
2019-04-25T06:14:02.980Z,4.27
2019-04-25T06:16:33.368Z,4.63
2019-04-25T06:19:13.603Z,4.17
2019-04-25T06:21:33.844Z,3.70
2019-04-25T06:24:15.524Z,3.80
2019-04-25T06:26:58.615Z,3.77
2019-04-25T06:29:27.025Z,3.60
2019-04-25T06:32:05.724Z,3.57
2019-04-25T06:34:28.388Z,3.80
2019-04-25T06:36:55.811Z,3.53
2019-04-25T06:39:25.329Z,3.40
2019-04-25T06:41:54.191Z,3.20
2019-04-25T06:44:29.963Z,3.03
2019-04-25T06:47:00.010Z,3.00
2019-04-25T06:49:30.081Z,2.87
2019-04-25T06:51:58.491Z,2.40
2019-04-25T06:54:28.047Z,2.43
2019-04-25T06:56:56.622Z,2.80
2019-04-25T06:59:27.224Z,2.70
2019-04-25T07:01:56.222Z,2.27
2019-04-25T07:04:26.448Z,1.97
2019-04-25T07:06:55.031Z,2.83
2019-04-25T07:09:26.788Z,2.07
2019-04-25T07:11:53.927Z,1.93
2019-04-25T07:14:24.833Z,1.93
2019-04-25T07:16:53.280Z,1.80
2019-04-25T07:19:21.961Z,2.20
2019-04-25T07:21:50.371Z,2.10
2019-04-25T07:24:18.826Z,2.30
2019-04-25T07:27:05.230Z,2.13
2019-04-25T07:29:35.714Z,1.97
2019-04-25T07:32:22.145Z,2.37
2019-04-25T07:34:50.646Z,2.13
2019-04-25T07:37:19.054Z,2.20
2019-04-25T07:39:47.557Z,2.47
2019-04-25T07:42:15.967Z,2.00
2019-04-25T07:44:52.262Z,2.00
2019-04-25T07:47:15.947Z,1.50
2019-04-25T07:49:44.535Z,1.77
2019-04-25T07:52:13.582Z,1.50
2019-04-25T07:54:47.984Z,1.80
2019-04-25T07:57:16.389Z,1.70
2019-04-25T07:59:44.817Z,1.70
2019-04-25T08:02:13.450Z,1.80
2019-04-25T08:04:41.904Z,1.87
2019-04-25T08:07:10.310Z,1.60
2019-04-25T08:09:38.741Z,1.70
2019-04-25T08:12:07.282Z,1.97
2019-04-25T08:14:54.230Z,1.50
2019-04-25T08:17:40.386Z,1.90
2019-04-25T08:20:09.255Z,2.00
2019-04-25T08:22:50.152Z,1.50
2019-04-25T08:25:08.151Z,1.40
2019-04-25T08:27:36.782Z,1.70
2019-04-25T08:30:06.677Z,1.47
2019-04-25T08:32:36.363Z,1.23
2019-04-25T08:35:06.032Z,1.17
2019-04-25T08:37:35.395Z,1.30
2019-04-25T08:40:06.433Z,1.40
2019-04-25T08:42:35.850Z,1.50
2019-04-25T08:45:06.875Z,1.47
2019-04-25T08:47:36.115Z,1.37
2019-04-25T08:50:26.349Z,1.17
2019-04-25T08:52:44.216Z,1.17
2019-04-25T08:55:31.360Z,1.17
2019-04-25T08:58:03.718Z,1.20
2019-04-25T09:00:35.736Z,1.07
2019-04-25T09:03:15.237Z,1.10
2019-04-25T09:05:46.232Z,1.10
2019-04-25T09:08:15.013Z,1.23
2019-04-25T09:10:44.804Z,1.00
2019-04-25T09:13:13.552Z,1.30
2019-04-25T09:15:41.903Z,1.20
2019-04-25T09:18:10.335Z,1.20
2019-04-25T09:20:40.880Z,1.20
2019-04-25T09:23:08.899Z,1.00
2019-04-25T09:25:37.301Z,1.23
2019-04-25T09:28:06.008Z,1.30
2019-04-25T09:30:35.832Z,1.10
2019-04-25T09:33:04.779Z,1.43
2019-04-25T09:35:33.652Z,1.30
2019-04-25T09:38:03.385Z,1.57
2019-04-25T09:40:31.861Z,1.40
2019-04-25T09:43:00.830Z,1.40
2019-04-25T09:45:33.833Z,1.40
2019-04-25T09:48:18.699Z,1.37
2019-04-25T09:50:48.743Z,1.40
2019-04-25T09:53:23.183Z,3.00
2019-04-25T09:55:55.727Z,1.40
2019-04-25T09:58:31.606Z,1.30
2019-04-25T10:01:10.438Z,1.33
2019-04-25T10:03:39.030Z,1.40
2019-04-25T10:06:07.503Z,1.50
2019-04-25T10:08:36.904Z,1.57
2019-04-25T10:11:05.529Z,1.40
2019-04-25T10:13:34.021Z,1.50
2019-04-25T10:16:05.074Z,1.20
2019-04-25T10:18:34.154Z,1.60
2019-04-25T10:21:04.854Z,1.30
2019-04-25T10:23:34.301Z,1.40
2019-04-25T10:26:03.813Z,1.43
2019-04-25T10:28:33.601Z,1.57
2019-04-25T10:31:03.561Z,1.77
2019-04-25T10:33:32.203Z,1.90
2019-04-25T10:36:01.190Z,1.40
2019-04-25T10:38:29.942Z,1.87
2019-04-25T10:40:58.531Z,2.03
2019-04-25T10:43:26.961Z,1.50
2019-04-25T10:45:55.428Z,2.60
2019-04-25T10:48:24.162Z,1.40
2019-04-25T10:50:55.433Z,1.40
2019-04-25T10:53:23.220Z,1.43
2019-04-25T10:55:53.071Z,1.50
2019-04-25T10:58:21.493Z,1.80
2019-04-25T11:00:52.832Z,1.33
2019-04-25T11:03:24.180Z,1.33
2019-04-25T11:05:55.663Z,1.43
2019-04-25T11:08:24.489Z,1.40
2019-04-25T11:10:54.930Z,1.37
2019-04-25T11:13:23.571Z,1.70
2019-04-25T11:15:52.116Z,1.40
2019-04-25T11:18:20.621Z,1.40
2019-04-25T11:20:50.298Z,1.40
2019-04-25T11:23:18.908Z,1.23
2019-04-25T11:25:47.377Z,1.37
2019-04-25T11:28:15.853Z,1.43
2019-04-25T11:30:46.753Z,1.37
2019-04-25T11:33:15.519Z,1.37
2019-04-25T11:35:46.608Z,1.40
2019-04-25T11:38:15.774Z,1.40
2019-04-25T11:40:48.088Z,1.47
2019-04-25T11:43:16.115Z,1.23
2019-04-25T11:45:45.937Z,1.30
2019-04-25T11:48:14.430Z,1.60
2019-04-25T11:50:46.126Z,1.20
2019-04-25T11:53:13.127Z,1.17
2019-04-25T11:55:42.579Z,1.20
2019-04-25T11:58:11.010Z,1.33
2019-04-25T12:00:39.439Z,1.20
2019-04-25T12:03:08.379Z,1.60
2019-04-25T12:05:36.811Z,1.20
2019-04-25T12:08:05.353Z,1.30
2019-04-25T12:10:34.596Z,1.40
2019-04-25T12:13:03.110Z,1.20
2019-04-25T12:15:33.265Z,1.40
2019-04-25T12:18:01.796Z,1.20
2019-04-25T12:20:30.291Z,1.20
2019-04-25T12:23:08.096Z,1.23
2019-04-25T12:25:28.924Z,1.17
2019-04-25T12:27:57.325Z,1.30
2019-04-25T12:30:37.402Z,1.23
2019-04-25T12:32:56.910Z,1.10
2019-04-25T12:35:25.400Z,1.30
2019-04-25T12:37:55.182Z,1.20
2019-04-25T12:40:24.289Z,1.23
2019-04-25T12:42:52.798Z,1.30
2019-04-25T12:45:37.865Z,1.20
2019-04-25T12:48:08.181Z,0.90
2019-04-25T12:50:36.619Z,1.07
2019-04-25T12:53:05.292Z,1.30
2019-04-25T12:55:34.251Z,1.10
2019-04-25T12:58:03.493Z,1.50
2019-04-25T13:00:32.186Z,1.20
2019-04-25T13:03:01.389Z,1.20
2019-04-25T13:05:30.067Z,1.13
2019-04-25T13:07:59.850Z,1.30
2019-04-25T13:10:28.600Z,1.20
2019-04-25T13:12:57.099Z,1.17
2019-04-25T13:15:27.039Z,1.30
2019-04-25T13:17:55.887Z,1.20
2019-04-25T13:20:24.294Z,1.20
2019-04-25T13:22:53.281Z,1.33
2019-04-25T13:25:24.292Z,1.20
2019-04-25T13:27:57.587Z,1.43
2019-04-25T13:30:31.189Z,1.20
2019-04-25T13:33:04.449Z,1.33
2019-04-25T13:35:34.540Z,1.20
2019-04-25T13:38:02.970Z,1.17
2019-04-25T13:40:31.378Z,1.10
2019-04-25T13:43:00.096Z,1.20
2019-04-25T13:45:28.724Z,1.20
2019-04-25T13:47:57.160Z,1.10
2019-04-25T13:50:26.097Z,1.40
2019-04-25T13:52:54.739Z,1.40
2019-04-25T13:55:23.990Z,1.00
2019-04-25T13:57:54.859Z,1.00
2019-04-25T14:00:25.133Z,1.10
2019-04-25T14:02:54.483Z,1.13
2019-04-25T14:05:24.931Z,1.13
2019-04-25T14:07:54.601Z,1.17
2019-04-25T14:10:25.021Z,1.30
2019-04-25T14:12:53.708Z,1.27
2019-04-25T14:15:25.134Z,1.30
2019-04-25T14:18:13.636Z,0.90
2019-04-25T14:20:56.058Z,0.90
2019-04-25T14:23:25.565Z,1.00
2019-04-25T14:25:54.173Z,0.90
2019-04-25T14:28:23.453Z,1.27
2019-04-25T14:30:52.876Z,0.90
2019-04-25T14:33:22.380Z,1.10
2019-04-25T14:35:54.625Z,1.20
2019-04-25T14:38:22.704Z,0.90
2019-04-25T14:40:51.791Z,1.00
2019-04-25T14:43:20.293Z,1.10
2019-04-25T14:45:48.767Z,1.00
2019-04-25T14:48:17.196Z,1.00
2019-04-25T14:50:45.595Z,1.10
2019-04-25T14:53:14.038Z,1.20
2019-04-25T14:55:52.810Z,1.00
2019-04-25T14:58:22.978Z,0.90
2019-04-25T15:00:52.236Z,1.00
2019-04-25T15:03:20.687Z,1.20
2019-04-25T15:05:49.093Z,1.00
2019-04-25T15:08:17.496Z,0.93
2019-04-25T15:10:48.341Z,0.97
2019-04-25T15:13:16.045Z,1.30
2019-04-25T15:15:44.541Z,1.00
2019-04-25T15:18:12.949Z,1.40
2019-04-25T15:20:41.372Z,1.00
2019-04-25T15:23:09.781Z,1.10
2019-04-25T15:25:39.212Z,0.90
2019-04-25T15:28:07.765Z,0.90
2019-04-25T15:30:38.299Z,0.97
2019-04-25T15:33:06.658Z,1.60
2019-04-25T15:35:45.634Z,1.40
2019-04-25T15:38:15.679Z,1.67
2019-04-25T15:40:54.318Z,1.40
2019-04-25T15:43:26.189Z,1.53
2019-04-25T15:45:56.158Z,1.00
2019-04-25T15:48:25.231Z,1.50
2019-04-25T15:50:55.382Z,1.00
2019-04-25T15:53:24.088Z,1.30
2019-04-25T15:55:53.530Z,1.30
2019-04-25T15:58:22.012Z,1.40
2019-04-25T16:00:50.503Z,1.40
2019-04-25T16:03:19.079Z,1.10
2019-04-25T16:05:47.584Z,1.40
2019-04-25T16:08:15.984Z,1.20
2019-04-25T16:10:44.415Z,1.20
2019-04-25T16:13:13.087Z,1.30
2019-04-25T16:15:41.630Z,1.43
2019-04-25T16:18:10.665Z,1.43
2019-04-25T16:20:39.101Z,1.30
2019-04-25T16:23:07.943Z,1.37
2019-04-25T16:25:36.371Z,1.10
2019-04-25T16:28:04.987Z,1.10
2019-04-25T16:30:34.581Z,1.10
2019-04-25T16:33:03.029Z,1.10
2019-04-25T16:35:31.457Z,1.10
2019-04-25T16:37:59.861Z,1.23
2019-04-25T16:40:28.681Z,1.20
2019-04-25T16:42:57.832Z,1.20
2019-04-25T16:45:26.313Z,1.13
2019-04-25T16:47:54.745Z,1.17
2019-04-25T16:50:23.914Z,1.00
2019-04-25T16:52:52.417Z,1.10
2019-04-25T16:55:20.895Z,1.30
2019-04-25T16:57:49.331Z,1.10
2019-04-25T17:00:36.267Z,1.20
2019-04-25T17:03:05.296Z,1.30
2019-04-25T17:05:34.939Z,1.13
2019-04-25T17:08:03.367Z,1.20
2019-04-25T17:10:32.797Z,1.10
2019-04-25T17:13:01.415Z,1.13
2019-04-25T17:15:41.062Z,1.00
2019-04-25T17:18:19.972Z,1.10
2019-04-25T17:20:50.085Z,1.10
2019-04-25T17:23:18.519Z,1.00
2019-04-25T17:25:46.986Z,1.20
2019-04-25T17:28:15.487Z,0.90
2019-04-25T17:30:45.531Z,1.10
2019-04-25T17:33:31.284Z,1.00
2019-04-25T17:36:08.266Z,1.00
2019-04-25T17:38:53.395Z,1.27
2019-04-25T17:41:21.795Z,1.10
2019-04-25T17:43:50.228Z,1.07
2019-04-25T17:46:20.266Z,1.10
2019-04-25T17:48:48.698Z,1.50
2019-04-25T17:51:17.103Z,1.10
2019-04-25T17:53:45.534Z,1.10
2019-04-25T17:56:14.010Z,1.13
2019-04-25T17:58:43.230Z,1.00
2019-04-25T18:01:13.861Z,1.30
2019-04-25T18:03:42.289Z,1.30
2019-04-25T18:06:10.702Z,1.13
2019-04-25T18:08:39.582Z,1.10
2019-04-25T18:11:08.546Z,1.20
2019-04-25T18:13:38.798Z,0.90
2019-04-25T18:16:08.810Z,1.33
2019-04-25T18:18:41.691Z,1.00
2019-04-25T18:21:10.159Z,1.27
2019-04-25T18:23:40.248Z,0.90
2019-04-25T18:26:15.792Z,1.30
2019-04-25T18:29:01.994Z,1.40
2019-04-25T18:31:30.397Z,1.20
2019-04-25T18:34:00.469Z,1.10
2019-04-25T18:36:37.398Z,1.57
2019-04-25T18:39:08.447Z,1.10
2019-04-25T18:41:41.796Z,1.30
2019-04-25T18:44:12.200Z,1.37
2019-04-25T18:46:42.571Z,1.50
2019-04-25T18:49:11.153Z,1.30
2019-04-25T18:51:40.631Z,1.10
2019-04-25T18:54:27.278Z,1.10
2019-04-25T18:57:09.297Z,1.57
2019-04-25T18:59:42.174Z,1.20
2019-04-25T19:02:18.081Z,1.80
2019-04-25T19:05:04.756Z,1.30
2019-04-25T19:07:33.230Z,1.60
2019-04-25T19:10:01.728Z,1.90
2019-04-25T19:12:30.132Z,1.40
2019-04-25T19:14:58.565Z,1.53
2019-04-25T19:17:26.973Z,1.40
2019-04-25T19:19:55.400Z,1.40
2019-04-25T19:22:23.801Z,1.57
2019-04-25T19:24:52.275Z,1.40
2019-04-25T19:27:23.922Z,1.60
2019-04-25T19:29:52.563Z,1.60
2019-04-25T19:32:21.004Z,1.50
2019-04-25T19:34:49.436Z,1.73
2019-04-25T19:37:17.841Z,1.40
2019-04-25T19:40:04.347Z,1.60
2019-04-25T19:42:34.404Z,1.70
2019-04-25T19:45:02.837Z,1.57
2019-04-25T19:47:31.235Z,1.87
2019-04-25T19:49:59.640Z,1.43
2019-04-25T19:52:29.714Z,1.43
2019-04-25T19:54:58.220Z,1.40
2019-04-25T19:57:26.652Z,1.60
2019-04-25T19:59:55.052Z,1.30
2019-04-25T20:02:33.942Z,1.70
2019-04-25T20:05:10.192Z,1.30
2019-04-25T20:07:42.552Z,1.63
2019-04-25T20:10:30.216Z,1.60
2019-04-25T20:12:58.627Z,1.50
2019-04-25T20:15:27.031Z,1.90
2019-04-25T20:17:55.458Z,1.43
2019-04-25T20:20:23.863Z,1.53
2019-04-25T20:22:52.457Z,1.67
2019-04-25T20:25:20.872Z,1.70
2019-04-25T20:27:49.308Z,1.93
2019-04-25T20:30:18.749Z,1.50
2019-04-25T20:32:47.363Z,1.77
2019-04-25T20:35:15.841Z,1.97
2019-04-25T20:37:44.927Z,2.20
2019-04-25T20:40:14.347Z,2.13
2019-04-25T20:42:42.776Z,1.70
2019-04-25T20:45:11.318Z,1.67
2019-04-25T20:47:39.751Z,1.77
2019-04-25T20:50:08.421Z,1.73
2019-04-25T20:52:38.199Z,1.73
2019-04-25T20:55:07.787Z,3.00
2019-04-25T20:57:36.219Z,1.97
2019-04-25T21:00:06.860Z,1.60
2019-04-25T21:02:35.292Z,2.23
2019-04-25T21:05:03.839Z,1.67
2019-04-25T21:07:32.267Z,2.00
2019-04-25T21:10:00.670Z,2.07
2019-04-25T21:12:29.866Z,2.10
2019-04-25T21:15:03.514Z,1.80
2019-04-25T21:17:33.826Z,1.70
2019-04-25T21:20:03.874Z,1.67
2019-04-25T21:22:32.303Z,1.80
2019-04-25T21:25:00.710Z,2.20
2019-04-25T21:27:29.184Z,1.83
2019-04-25T21:29:57.775Z,2.00
2019-04-25T21:32:26.206Z,1.80
2019-04-25T21:34:55.219Z,1.70
2019-04-25T21:37:24.256Z,2.07
2019-04-25T21:39:58.352Z,1.90
2019-04-25T21:42:31.364Z,2.07
2019-04-25T21:45:00.471Z,2.00
2019-04-25T21:47:28.959Z,2.00
2019-04-25T21:49:58.549Z,1.90
2019-04-25T21:52:27.313Z,2.50
2019-04-25T21:54:56.023Z,2.10
2019-04-25T21:57:25.103Z,2.07
2019-04-25T22:00:03.612Z,2.10
2019-04-25T22:02:24.017Z,2.20
2019-04-25T22:04:52.619Z,2.23
2019-04-25T22:07:21.894Z,2.37
2019-04-25T22:09:50.767Z,2.50
2019-04-25T22:12:19.418Z,2.67
2019-04-25T22:14:47.854Z,2.60
2019-04-25T22:17:16.427Z,2.73
2019-04-25T22:19:45.474Z,3.40
2019-04-25T22:22:14.273Z,3.13
2019-04-25T22:24:42.688Z,3.27
2019-04-25T22:27:12.730Z,2.77
2019-04-25T22:29:42.797Z,3.90
2019-04-25T22:32:12.845Z,3.40
2019-04-25T22:34:55.021Z,3.50
2019-04-25T22:37:23.498Z,4.13
2019-04-25T22:39:52.006Z,3.80
2019-04-25T22:42:20.407Z,3.90
2019-04-25T22:44:48.839Z,3.80
2019-04-25T22:47:17.714Z,3.90
2019-04-25T22:49:46.228Z,4.03
2019-04-25T22:52:14.913Z,4.50
2019-04-25T22:54:43.711Z,4.53
2019-04-25T22:57:12.722Z,4.70
2019-04-25T22:59:41.476Z,4.70
2019-04-25T23:02:26.520Z,5.13
2019-04-25T23:05:05.356Z,5.13
2019-04-25T23:07:26.962Z,5.67
2019-04-25T23:09:55.577Z,4.87
2019-04-25T23:12:24.167Z,4.40
2019-04-25T23:14:52.557Z,4.77
2019-04-25T23:17:20.993Z,5.30
2019-04-25T23:19:49.575Z,4.83
2019-04-25T23:22:18.008Z,5.40
2019-04-25T23:24:48.230Z,5.60
2019-04-25T23:27:27.270Z,5.80
2019-04-25T23:29:55.673Z,5.60
2019-04-25T23:32:24.279Z,6.00
2019-04-25T23:34:52.684Z,6.03
2019-04-25T23:37:21.115Z,5.80
2019-04-25T23:39:49.523Z,6.53
2019-04-25T23:42:17.966Z,6.10
2019-04-25T23:44:46.525Z,5.97
2019-04-25T23:47:14.957Z,6.33
2019-04-25T23:49:43.351Z,6.90
2019-04-25T23:52:12.993Z,7.63
2019-04-25T23:54:41.445Z,6.53
2019-04-25T23:57:10.043Z,6.50
2019-04-25T23:59:38.450Z,7.43
